• Join FlightAware (Why Join?)
  • Login
  • US Flag 
09:33AM EDT


 

Airport Tracker/Info


-or-


 

Live Flight TrackerFlight Track Log ✈ CES2293 ✈ 30-Aug-2013 ✈ ZLXY / XIY - ZPLJ / LJG

Flight Track Log - Related Links

Times and Time Zones

All times are in EDT time to prevent confusion due to time zone crossing. See the CES2293 flight status page for this flight to view local times or setup timezone preferences in your user account.

Time Position Orientation Groundspeed Altitude Reporting Facility
EDT Latitude Longitude Course Direction KTS MPH feet Rate Location/Type
07:31AM 33.3932 107.4725 226° Southwest  Level Estimated
07:32AM 33.3224 107.3884 225° Southwest  Level Estimated
07:33AM 33.2517 107.3043 225° Southwest  Level Estimated
07:34AM 33.1808 107.2204 225° Southwest  Level Estimated
07:35AM 33.1099 107.1367 225° Southwest  Level Estimated
07:36AM 33.0390 107.0531 225° Southwest  Level Estimated
07:37AM 32.9679 106.9696 225° Southwest  Level Estimated
07:38AM 32.8969 106.8863 225° Southwest  Level Estimated
07:39AM 32.8258 106.8030 225° Southwest  Level Estimated
07:40AM 32.7546 106.7200 224° Southwest  Level Estimated
07:41AM 32.6834 106.6370 224° Southwest  Level Estimated
07:42AM 32.6121 106.5542 224° Southwest  Level Estimated
07:43AM 32.5407 106.4715 224° Southwest  Level Estimated
07:44AM 32.4694 106.3890 224° Southwest  Level Estimated
07:45AM 32.3979 106.3065 224° Southwest  Level Estimated
07:46AM 32.3264 106.2243 224° Southwest  Level Estimated
07:47AM 32.2549 106.1421 224° Southwest  Level Estimated
07:48AM 32.1833 106.0601 224° Southwest  Level Estimated
07:49AM 32.1116 105.9782 224° Southwest  Level Estimated
07:50AM 32.0399 105.8964 224° Southwest  Level Estimated
07:51AM 31.9681 105.8148 224° Southwest  Level Estimated
07:52AM 31.8963 105.7332 224° Southwest  Level Estimated
07:53AM 31.8244 105.6518 224° Southwest  Level Estimated
07:54AM 31.7525 105.5706 224° Southwest  Level Estimated
07:55AM 31.6805 105.4894 224° Southwest  Level Estimated
07:56AM 31.6085 105.4084 224° Southwest  Level Estimated
07:57AM 31.5364 105.3276 224° Southwest  Level Estimated
07:58AM 31.4643 105.2468 224° Southwest  Level Estimated
07:59AM 31.3922 105.1662 224° Southwest  Level Estimated
08:00AM 31.3199 105.0856 224° Southwest  Level Estimated
08:01AM 31.2477 105.0052 224° Southwest  Level Estimated
08:02AM 31.1753 104.9250 224° Southwest  Level Estimated
08:03AM 31.1029 104.8448 223° Southwest  Level Estimated
08:04AM 31.0305 104.7648 223° Southwest  Level Estimated
08:05AM 30.9580 104.6849 223° Southwest  Level Estimated
08:06AM 30.8855 104.6051 223° Southwest  Level Estimated
08:07AM 30.8130 104.5255 223° Southwest  Level Estimated
08:08AM 30.7403 104.4459 223° Southwest  Level Estimated
08:09AM 30.6677 104.3665 223° Southwest  Level Estimated
08:10AM 30.5949 104.2872 223° Southwest  Level Estimated
08:11AM 30.5222 104.2080 223° Southwest  Level Estimated
08:12AM 30.4494 104.1290 223° Southwest  Level Estimated
08:13AM 30.3765 104.0500 223° Southwest  Level Estimated
08:14AM 30.3036 103.9712 223° Southwest  Level Estimated
08:15AM 30.2306 103.8925 223° Southwest  Level Estimated
08:16AM 30.1576 103.8139 223° Southwest  Level Estimated
08:17AM 30.0846 103.7354 223° Southwest  Level Estimated
08:18AM 30.0115 103.6571 223° Southwest  Level Estimated
08:19AM 29.9384 103.5788 223° Southwest  Level Estimated
08:20AM 29.8652 103.5007 223° Southwest  Level Estimated
08:21AM 29.7919 103.4227 223° Southwest  Level Estimated
08:22AM 29.7187 103.3448 223° Southwest  Level Estimated
08:23AM 29.6453 103.2670 223° Southwest  Level Estimated
08:24AM 29.5720 103.1893 223° Southwest  Level Estimated
08:25AM 29.4985 103.1118 223° Southwest  Level Estimated
08:26AM 29.4251 103.0343 223° Southwest  Level Estimated
08:27AM 29.3516 102.9570 223° Southwest  Level Estimated
08:28AM 29.2780 102.8798 222° Southwest  Level Estimated
08:29AM 29.2044 102.8027 222° Southwest  Level Estimated
08:30AM 29.1308 102.7257 222° Southwest  Level Estimated
08:31AM 29.0571 102.6488 222° Southwest  Level Estimated
08:32AM 28.9834 102.5720 222° Southwest  Level Estimated
08:33AM 28.9096 102.4953 222° Southwest  Level Estimated
08:34AM 28.8358 102.4188 222° Southwest  Level Estimated
08:35AM 28.7619 102.3423 222° Southwest  Level Estimated
08:36AM 28.6880 102.2660 222° Southwest  Level Estimated
08:37AM 28.6141 102.1897 222° Southwest  Level Estimated
08:38AM 28.5401 102.1136 222° Southwest  Level Estimated
08:39AM 28.4661 102.0376 222° Southwest  Level Estimated
08:40AM 28.3920 101.9616 222° Southwest  Level Estimated
08:41AM 28.3179 101.8858 222° Southwest  Level Estimated
08:42AM 28.2438 101.8101 222° Southwest  Level Estimated
08:43AM 28.1696 101.7345 222° Southwest  Level Estimated
08:44AM 28.0953 101.6590 222° Southwest  Level Estimated
08:45AM 28.0210 101.5836 222° Southwest  Level Estimated
08:46AM 27.9467 101.5083 222° Southwest  Level Estimated
08:47AM 27.8724 101.4331 222° Southwest  Level Estimated
08:48AM 27.7980 101.3581 222° Southwest  Level Estimated
08:49AM 27.7235 101.2831 222° Southwest  Level Estimated
08:50AM 27.6490 101.2082 222° Southwest  Level Estimated
08:51AM 27.5745 101.1334 222° Southwest  Level Estimated
08:52AM 27.5000 101.0587 222° Southwest  Level Estimated
08:53AM 27.4254 100.9842 222° Southwest  Level Estimated
08:54AM 27.3507 100.9097 222° Southwest  Level Estimated
08:55AM 27.2761 100.8353 222° Southwest  Level Estimated
08:56AM 27.2013 100.7611 221° Southwest  Level Estimated
08:57AM 27.1266 100.6869 221° Southwest  Level Estimated
08:58AM 27.0518 100.6128 221° Southwest  Level Estimated
08:59AM 26.9769 100.5388 221° Southwest  Level Estimated
09:00AM 26.9021 100.4650 221° Southwest  Level Estimated
09:01AM 26.8272 100.3912 221° Southwest  Level Estimated
09:02AM 26.7522 100.3175 221° Southwest  Level Estimated
09:03AM 26.6792 100.2458 221° Southwest  Level Estimated
09:04AM 26.6792 100.2458 138° Southeast  Level Estimated
09:05AM 26.6792 100.2458 138° Southeast  Level Estimated
09:06AM 26.6792 100.2458 138° Southeast  Level Estimated
09:07AM 26.6792 100.2458 138° Southeast  Level Estimated
09:08AM 26.6792 100.2458 138° Southeast  Level Estimated
09:09AM 26.6792 100.2458 138° Southeast  Level Estimated
09:10AM 26.6792 100.2458 138° Southeast  Level Estimated
09:11AM 26.6792 100.2458 138° Southeast  Level Estimated
09:12AM 26.6792 100.2458 138° Southeast  Level Estimated
09:13AM 26.6792 100.2458 138° Southeast  Level Estimated
09:14AM 26.6792 100.2458 138° Southeast  Level Estimated
09:15AM 26.6792 100.2458 138° Southeast  Level Estimated
09:16AM 26.6792 100.2458 138° Southeast  Level Estimated
09:17AM 26.6792 100.2458 138° Southeast  Level Estimated
09:18AM 26.6792 100.2458 138° Southeast  Level Estimated
09:19AM 26.6792 100.2458 138° Southeast  Level Estimated
09:20AM 26.6792 100.2458 138° Southeast  Level Estimated